Terminal Aerodrome Forecast
Issued by NWS

Home | Current Version | Previous Version | Text Only | Print | Product List | Glossary On
Versions: 1 2 3 4 5 6 7 8 9 10 11 12 13 14 15 16 17 18 19 20
000
FTUS46 KOTX 060719 AAA
TAFMWH
TAF AMD
KMWH 060719Z 0607/0706 30004KT P6SM -SN OVC024
     FM060900 36005KT 5SM -SN BKN015 OVC025
     FM061000 35005KT 6SM -SN BKN030 OVC050
     FM061300 36010KT P6SM SCT060 BKN120
     FM061900 01011KT P6SM FEW100
     FM070300 35008KT P6SM SCT070=

USA.gov is the U.S. government's official web portal to all federal, state and local government web resources and services.